sensor_id;sensor_type;location;lat;lon;timestamp;noise_LAeq;noise_LA_min;noise_LA_max;noise_LA01;noise_LA95
64642;Laerm;59936;51.490;5.436;2023-05-24T00:04:45;40.34;36.94;44.96;;
64642;Laerm;59936;51.490;5.436;2023-05-24T00:07:14;40.96;36.61;46.27;;
64642;Laerm;59936;51.490;5.436;2023-05-24T00:09:43;38.94;36.66;41.77;;
64642;Laerm;59936;51.490;5.436;2023-05-24T00:12:11;38.94;35.17;43.56;;
64642;Laerm;59936;51.490;5.436;2023-05-24T00:14:40;39.33;36.95;43.56;;
64642;Laerm;59936;51.490;5.436;2023-05-24T00:17:09;38.70;36.45;44.04;;
64642;Laerm;59936;51.490;5.436;2023-05-24T00:19:37;39.90;37.28;43.42;;
64642;Laerm;59936;51.490;5.436;2023-05-24T00:22:06;39.04;36.83;43.03;;
64642;Laerm;59936;51.490;5.436;2023-05-24T00:24:34;39.60;36.90;45.03;;
64642;Laerm;59936;51.490;5.436;2023-05-24T00:27:03;39.22;36.32;44.38;;
64642;Laerm;59936;51.490;5.436;2023-05-24T00:29:32;40.41;37.95;44.05;;
64642;Laerm;59936;51.490;5.436;2023-05-24T00:32:00;40.39;37.92;45.53;;
64642;Laerm;59936;51.490;5.436;2023-05-24T00:34:29;41.57;38.85;44.39;;
64642;Laerm;59936;51.490;5.436;2023-05-24T00:36:57;44.13;38.73;68.49;;
64642;Laerm;59936;51.490;5.436;2023-05-24T00:39:26;41.22;38.40;45.56;;
64642;Laerm;59936;51.490;5.436;2023-05-24T00:41:54;40.70;36.99;45.38;;
64642;Laerm;59936;51.490;5.436;2023-05-24T00:44:23;41.73;38.80;46.82;;
64642;Laerm;59936;51.490;5.436;2023-05-24T00:46:52;41.58;38.38;49.64;;
64642;Laerm;59936;51.490;5.436;2023-05-24T00:49:21;40.26;37.04;48.29;;
64642;Laerm;59936;51.490;5.436;2023-05-24T00:51:52;40.85;37.85;47.46;;
64642;Laerm;59936;51.490;5.436;2023-05-24T00:54:21;41.56;37.61;49.02;;
64642;Laerm;59936;51.490;5.436;2023-05-24T00:56:50;39.70;37.37;46.66;;
64642;Laerm;59936;51.490;5.436;2023-05-24T00:59:18;41.07;37.27;45.32;;
64642;Laerm;59936;51.490;5.436;2023-05-24T01:01:47;39.85;37.22;42.55;;
64642;Laerm;59936;51.490;5.436;2023-05-24T01:04:16;39.92;36.66;45.04;;
64642;Laerm;59936;51.490;5.436;2023-05-24T01:09:49;40.13;37.60;46.02;;
64642;Laerm;59936;51.490;5.436;2023-05-24T01:12:43;39.76;36.57;46.23;;
64642;Laerm;59936;51.490;5.436;2023-05-24T01:15:24;39.65;36.37;44.92;;
64642;Laerm;59936;51.490;5.436;2023-05-24T01:18:00;39.68;36.33;44.08;;
64642;Laerm;59936;51.490;5.436;2023-05-24T01:20:32;39.86;36.46;43.16;;
64642;Laerm;59936;51.490;5.436;2023-05-24T01:26:36;41.05;36.55;45.84;;
64642;Laerm;59936;51.490;5.436;2023-05-24T01:29:07;39.48;36.04;50.91;;
64642;Laerm;59936;51.490;5.436;2023-05-24T01:31:37;39.56;35.88;43.18;;
64642;Laerm;59936;51.490;5.436;2023-05-24T01:34:06;39.76;36.67;43.33;;
64642;Laerm;59936;51.490;5.436;2023-05-24T01:36:34;39.59;36.83;44.13;;
64642;Laerm;59936;51.490;5.436;2023-05-24T01:39:03;39.21;36.08;43.25;;
64642;Laerm;59936;51.490;5.436;2023-05-24T01:44:32;40.14;37.40;43.17;;
64642;Laerm;59936;51.490;5.436;2023-05-24T01:47:33;39.91;36.74;44.14;;
64642;Laerm;59936;51.490;5.436;2023-05-24T01:50:31;40.23;36.11;46.84;;
64642;Laerm;59936;51.490;5.436;2023-05-24T01:53:06;40.33;37.47;43.40;;
64642;Laerm;59936;51.490;5.436;2023-05-24T01:55:36;39.18;36.30;44.00;;
64642;Laerm;59936;51.490;5.436;2023-05-24T01:58:06;40.21;36.50;45.84;;
64642;Laerm;59936;51.490;5.436;2023-05-24T02:00:38;40.29;37.72;43.50;;
64642;Laerm;59936;51.490;5.436;2023-05-24T02:03:08;39.98;37.55;45.47;;
64642;Laerm;59936;51.490;5.436;2023-05-24T02:05:37;40.82;37.77;52.11;;
64642;Laerm;59936;51.490;5.436;2023-05-24T02:08:06;40.60;38.32;43.48;;
64642;Laerm;59936;51.490;5.436;2023-05-24T02:10:35;40.79;38.74;44.44;;
64642;Laerm;59936;51.490;5.436;2023-05-24T02:13:04;40.40;37.27;43.15;;
64642;Laerm;59936;51.490;5.436;2023-05-24T02:15:34;41.58;39.26;45.61;;
64642;Laerm;59936;51.490;5.436;2023-05-24T02:18:03;41.68;38.87;46.30;;
64642;Laerm;59936;51.490;5.436;2023-05-24T02:20:32;42.07;38.69;46.17;;
64642;Laerm;59936;51.490;5.436;2023-05-24T02:23:02;42.20;39.30;47.87;;
64642;Laerm;59936;51.490;5.436;2023-05-24T02:25:32;41.41;38.40;47.26;;
64642;Laerm;59936;51.490;5.436;2023-05-24T02:28:00;41.98;38.91;44.99;;
64642;Laerm;59936;51.490;5.436;2023-05-24T02:30:29;42.01;37.66;45.90;;
64642;Laerm;59936;51.490;5.436;2023-05-24T02:32:57;42.46;38.76;45.49;;
64642;Laerm;59936;51.490;5.436;2023-05-24T02:35:26;43.79;39.71;52.45;;
64642;Laerm;59936;51.490;5.436;2023-05-24T02:37:54;44.59;40.46;54.37;;
64642;Laerm;59936;51.490;5.436;2023-05-24T02:40:23;46.96;41.14;56.86;;
64642;Laerm;59936;51.490;5.436;2023-05-24T02:42:51;49.62;40.71;61.08;;
64642;Laerm;59936;51.490;5.436;2023-05-24T02:45:20;51.84;41.83;62.88;;
64642;Laerm;59936;51.490;5.436;2023-05-24T02:47:49;50.69;41.62;62.25;;
64642;Laerm;59936;51.490;5.436;2023-05-24T02:50:17;51.27;42.63;63.53;;
64642;Laerm;59936;51.490;5.436;2023-05-24T02:52:51;55.93;41.90;72.02;;
64642;Laerm;59936;51.490;5.436;2023-05-24T02:55:20;59.59;43.15;71.96;;
64642;Laerm;59936;51.490;5.436;2023-05-24T02:57:54;59.64;42.49;72.12;;
64642;Laerm;59936;51.490;5.436;2023-05-24T03:00:23;58.42;44.64;72.99;;
64642;Laerm;59936;51.490;5.436;2023-05-24T03:02:51;52.43;44.17;64.79;;
64642;Laerm;59936;51.490;5.436;2023-05-24T03:05:20;54.16;44.46;64.40;;
64642;Laerm;59936;51.490;5.436;2023-05-24T03:07:55;59.38;44.62;72.74;;
64642;Laerm;59936;51.490;5.436;2023-05-24T03:10:23;59.33;45.03;71.90;;
64642;Laerm;59936;51.490;5.436;2023-05-24T03:12:52;55.06;45.14;66.46;;
64642;Laerm;59936;51.490;5.436;2023-05-24T03:15:20;54.40;44.38;63.17;;
64642;Laerm;59936;51.490;5.436;2023-05-24T03:17:49;54.55;45.57;63.93;;
64642;Laerm;59936;51.490;5.436;2023-05-24T03:20:18;54.34;45.09;62.65;;
64642;Laerm;59936;51.490;5.436;2023-05-24T03:22:46;53.38;45.04;63.77;;
64642;Laerm;59936;51.490;5.436;2023-05-24T03:25:15;51.65;45.82;59.70;;
64642;Laerm;59936;51.490;5.436;2023-05-24T03:27:43;52.47;46.45;61.21;;
64642;Laerm;59936;51.490;5.436;2023-05-24T03:30:12;52.40;44.88;63.22;;
64642;Laerm;59936;51.490;5.436;2023-05-24T03:32:40;52.12;46.68;61.65;;
64642;Laerm;59936;51.490;5.436;2023-05-24T03:35:09;51.25;45.60;62.82;;
64642;Laerm;59936;51.490;5.436;2023-05-24T03:37:38;50.34;46.66;61.05;;
64642;Laerm;59936;51.490;5.436;2023-05-24T03:40:07;51.54;46.73;63.34;;
64642;Laerm;59936;51.490;5.436;2023-05-24T03:42:35;53.10;46.13;62.42;;
64642;Laerm;59936;51.490;5.436;2023-05-24T03:45:05;51.54;46.20;60.40;;
64642;Laerm;59936;51.490;5.436;2023-05-24T03:47:33;52.31;47.37;64.41;;
64642;Laerm;59936;51.490;5.436;2023-05-24T03:50:02;51.73;46.87;63.50;;
64642;Laerm;59936;51.490;5.436;2023-05-24T03:52:31;50.60;46.69;56.24;;
64642;Laerm;59936;51.490;5.436;2023-05-24T03:54:59;51.12;47.01;56.17;;
64642;Laerm;59936;51.490;5.436;2023-05-24T03:57:28;50.35;46.23;56.35;;
64642;Laerm;59936;51.490;5.436;2023-05-24T03:59:56;50.54;46.34;60.18;;
64642;Laerm;59936;51.490;5.436;2023-05-24T04:02:25;50.09;46.87;56.57;;
64642;Laerm;59936;51.490;5.436;2023-05-24T04:04:54;49.73;47.38;56.81;;
64642;Laerm;59936;51.490;5.436;2023-05-24T04:07:22;50.54;46.86;59.07;;
64642;Laerm;59936;51.490;5.436;2023-05-24T04:09:51;51.70;47.21;58.56;;
64642;Laerm;59936;51.490;5.436;2023-05-24T04:12:19;52.68;47.46;58.67;;
64642;Laerm;59936;51.490;5.436;2023-05-24T04:14:48;54.67;48.10;65.61;;
64642;Laerm;59936;51.490;5.436;2023-05-24T04:17:16;54.61;47.30;63.26;;
64642;Laerm;59936;51.490;5.436;2023-05-24T04:19:45;53.86;47.39;63.05;;
64642;Laerm;59936;51.490;5.436;2023-05-24T04:22:13;51.29;47.69;61.85;;
64642;Laerm;59936;51.490;5.436;2023-05-24T04:24:42;51.93;47.59;60.56;;
64642;Laerm;59936;51.490;5.436;2023-05-24T04:27:11;52.90;47.95;61.44;;
64642;Laerm;59936;51.490;5.436;2023-05-24T04:29:40;53.91;46.75;69.88;;
64642;Laerm;59936;51.490;5.436;2023-05-24T04:32:08;51.22;46.37;61.53;;
64642;Laerm;59936;51.490;5.436;2023-05-24T04:34:37;50.56;47.04;58.43;;
64642;Laerm;59936;51.490;5.436;2023-05-24T04:37:06;52.98;47.17;62.53;;
64642;Laerm;59936;51.490;5.436;2023-05-24T04:39:34;52.00;47.73;62.38;;
64642;Laerm;59936;51.490;5.436;2023-05-24T04:42:03;49.83;47.23;58.14;;
64642;Laerm;59936;51.490;5.436;2023-05-24T04:44:31;49.28;46.95;59.81;;
64642;Laerm;59936;51.490;5.436;2023-05-24T04:47:00;49.71;46.87;57.42;;
64642;Laerm;59936;51.490;5.436;2023-05-24T04:49:29;49.05;46.97;56.06;;
64642;Laerm;59936;51.490;5.436;2023-05-24T04:51:57;50.20;46.74;61.46;;
64642;Laerm;59936;51.490;5.436;2023-05-24T04:54:26;53.13;46.97;65.08;;
64642;Laerm;59936;51.490;5.436;2023-05-24T04:56:54;52.66;46.55;63.80;;
64642;Laerm;59936;51.490;5.436;2023-05-24T04:59:26;58.73;47.05;72.26;;
64642;Laerm;59936;51.490;5.436;2023-05-24T05:01:59;60.94;46.17;71.22;;
64642;Laerm;59936;51.490;5.436;2023-05-24T05:04:28;54.47;45.87;69.75;;
64642;Laerm;59936;51.490;5.436;2023-05-24T05:06:58;49.66;46.06;58.17;;
64642;Laerm;59936;51.490;5.436;2023-05-24T05:09:26;48.41;45.72;56.19;;
64642;Laerm;59936;51.490;5.436;2023-05-24T05:11:55;51.64;45.49;61.43;;
64642;Laerm;59936;51.490;5.436;2023-05-24T05:14:23;51.74;45.30;61.04;;
64642;Laerm;59936;51.490;5.436;2023-05-24T05:16:52;49.48;45.03;63.02;;
64642;Laerm;59936;51.490;5.436;2023-05-24T05:19:20;52.51;44.69;74.41;;
64642;Laerm;59936;51.490;5.436;2023-05-24T05:21:49;54.78;44.64;66.91;;
64642;Laerm;59936;51.490;5.436;2023-05-24T05:24:18;51.09;44.64;66.13;;
64642;Laerm;59936;51.490;5.436;2023-05-24T05:26:46;49.06;44.51;62.94;;
64642;Laerm;59936;51.490;5.436;2023-05-24T05:29:15;48.83;44.76;65.12;;
64642;Laerm;59936;51.490;5.436;2023-05-24T05:31:43;49.10;45.03;58.88;;
64642;Laerm;59936;51.490;5.436;2023-05-24T05:34:12;49.03;45.24;57.47;;
64642;Laerm;59936;51.490;5.436;2023-05-24T05:36:40;56.41;45.16;66.09;;
64642;Laerm;59936;51.490;5.436;2023-05-24T05:39:09;50.56;45.07;59.91;;
64642;Laerm;59936;51.490;5.436;2023-05-24T05:41:38;49.39;44.63;59.78;;
64642;Laerm;59936;51.490;5.436;2023-05-24T05:44:07;49.45;44.81;60.36;;
64642;Laerm;59936;51.490;5.436;2023-05-24T05:46:36;52.03;44.41;61.95;;
64642;Laerm;59936;51.490;5.436;2023-05-24T05:49:05;53.10;43.56;67.86;;
64642;Laerm;59936;51.490;5.436;2023-05-24T05:51:34;55.15;44.28;67.22;;
64642;Laerm;59936;51.490;5.436;2023-05-24T05:54:03;51.56;44.23;67.55;;
64642;Laerm;59936;51.490;5.436;2023-05-24T05:56:32;53.62;43.90;67.44;;
64642;Laerm;59936;51.490;5.436;2023-05-24T05:59:00;51.11;44.27;60.97;;
64642;Laerm;59936;51.490;5.436;2023-05-24T06:01:29;54.73;45.03;65.56;;
64642;Laerm;59936;51.490;5.436;2023-05-24T06:03:58;53.03;43.98;70.07;;
64642;Laerm;59936;51.490;5.436;2023-05-24T06:06:26;51.28;44.11;63.46;;
64642;Laerm;59936;51.490;5.436;2023-05-24T06:08:55;51.53;44.18;63.90;;
64642;Laerm;59936;51.490;5.436;2023-05-24T06:11:23;55.63;44.50;69.51;;
64642;Laerm;59936;51.490;5.436;2023-05-24T06:13:53;51.57;43.77;65.69;;
64642;Laerm;59936;51.490;5.436;2023-05-24T06:16:21;52.29;43.93;60.40;;
64642;Laerm;59936;51.490;5.436;2023-05-24T06:18:50;54.77;44.68;65.76;;
64642;Laerm;59936;51.490;5.436;2023-05-24T06:21:18;52.26;44.85;61.38;;
64642;Laerm;59936;51.490;5.436;2023-05-24T06:23:47;52.03;43.67;61.28;;
64642;Laerm;59936;51.490;5.436;2023-05-24T06:26:15;53.32;44.58;75.79;;
64642;Laerm;59936;51.490;5.436;2023-05-24T06:28:44;51.26;45.37;59.90;;
64642;Laerm;59936;51.490;5.436;2023-05-24T06:31:13;54.02;47.95;63.95;;
64642;Laerm;59936;51.490;5.436;2023-05-24T06:33:41;52.74;45.31;63.85;;
64642;Laerm;59936;51.490;5.436;2023-05-24T06:36:10;54.13;45.53;66.68;;
64642;Laerm;59936;51.490;5.436;2023-05-24T06:38:38;52.86;46.09;59.66;;
64642;Laerm;59936;51.490;5.436;2023-05-24T06:41:07;52.18;44.51;67.15;;
64642;Laerm;59936;51.490;5.436;2023-05-24T06:43:35;50.26;44.33;58.86;;
64642;Laerm;59936;51.490;5.436;2023-05-24T06:46:05;53.20;46.19;62.24;;
64642;Laerm;59936;51.490;5.436;2023-05-24T06:48:33;55.18;46.80;63.96;;
64642;Laerm;59936;51.490;5.436;2023-05-24T06:51:07;55.91;47.93;67.83;;
64642;Laerm;59936;51.490;5.436;2023-05-24T06:53:36;56.32;48.67;69.37;;
64642;Laerm;59936;51.490;5.436;2023-05-24T06:56:04;52.77;47.83;63.26;;
64642;Laerm;59936;51.490;5.436;2023-05-24T06:58:33;53.25;48.47;69.87;;
64642;Laerm;59936;51.490;5.436;2023-05-24T07:01:01;52.74;47.88;61.04;;
64642;Laerm;59936;51.490;5.436;2023-05-24T07:03:30;51.70;47.42;60.30;;
64642;Laerm;59936;51.490;5.436;2023-05-24T07:05:59;50.93;47.83;58.00;;
64642;Laerm;59936;51.490;5.436;2023-05-24T07:08:28;52.23;48.06;60.95;;
64642;Laerm;59936;51.490;5.436;2023-05-24T07:11:00;55.79;48.79;69.47;;
64642;Laerm;59936;51.490;5.436;2023-05-24T07:13:28;56.43;46.56;70.15;;
64642;Laerm;59936;51.490;5.436;2023-05-24T07:15:57;50.66;44.73;62.57;;
64642;Laerm;59936;51.490;5.436;2023-05-24T07:18:25;53.53;44.85;70.88;;
64642;Laerm;59936;51.490;5.436;2023-05-24T07:20:54;52.25;46.70;61.72;;
64642;Laerm;59936;51.490;5.436;2023-05-24T07:23:23;58.50;46.76;73.16;;
64642;Laerm;59936;51.490;5.436;2023-05-24T07:25:51;61.18;47.28;76.14;;
64642;Laerm;59936;51.490;5.436;2023-05-24T07:28:20;51.16;45.58;61.45;;
64642;Laerm;59936;51.490;5.436;2023-05-24T07:30:49;51.84;47.37;60.01;;
64642;Laerm;59936;51.490;5.436;2023-05-24T07:33:17;51.69;45.86;59.61;;
64642;Laerm;59936;51.490;5.436;2023-05-24T07:35:46;50.28;46.16;60.74;;
64642;Laerm;59936;51.490;5.436;2023-05-24T07:38:20;53.50;46.42;71.32;;
64642;Laerm;59936;51.490;5.436;2023-05-24T07:40:50;61.44;45.43;75.61;;
64642;Laerm;59936;51.490;5.436;2023-05-24T07:43:19;53.45;45.89;63.19;;
64642;Laerm;59936;51.490;5.436;2023-05-24T07:45:47;50.68;45.81;62.47;;
64642;Laerm;59936;51.490;5.436;2023-05-24T07:48:16;51.28;44.97;59.46;;
64642;Laerm;59936;51.490;5.436;2023-05-24T07:50:44;50.58;44.64;58.32;;
64642;Laerm;59936;51.490;5.436;2023-05-24T07:53:14;51.77;45.98;63.95;;
64642;Laerm;59936;51.490;5.436;2023-05-24T07:55:46;61.42;46.36;77.37;;
64642;Laerm;59936;51.490;5.436;2023-05-24T07:58:15;59.05;47.37;73.82;;
64642;Laerm;59936;51.490;5.436;2023-05-24T08:00:44;52.57;45.67;64.04;;
64642;Laerm;59936;51.490;5.436;2023-05-24T08:03:12;52.24;46.26;59.55;;
64642;Laerm;59936;51.490;5.436;2023-05-24T08:05:45;56.21;46.90;74.85;;
64642;Laerm;59936;51.490;5.436;2023-05-24T08:08:14;59.32;45.23;77.79;;
64642;Laerm;59936;51.490;5.436;2023-05-24T08:10:49;53.86;44.82;73.03;;
64642;Laerm;59936;51.490;5.436;2023-05-24T08:13:17;59.52;42.66;74.89;;
64642;Laerm;59936;51.490;5.436;2023-05-24T08:15:46;49.38;42.76;59.75;;
64642;Laerm;59936;51.490;5.436;2023-05-24T08:18:15;50.27;43.14;66.90;;
64642;Laerm;59936;51.490;5.436;2023-05-24T08:20:43;49.48;42.10;58.98;;
64642;Laerm;59936;51.490;5.436;2023-05-24T08:23:12;50.44;44.34;62.57;;
64642;Laerm;59936;51.490;5.436;2023-05-24T08:25:41;49.39;42.74;60.07;;
64642;Laerm;59936;51.490;5.436;2023-05-24T08:28:09;48.87;42.59;62.97;;
64642;Laerm;59936;51.490;5.436;2023-05-24T08:30:38;50.69;44.36;59.43;;
64642;Laerm;59936;51.490;5.436;2023-05-24T08:33:06;51.35;44.54;60.31;;
64642;Laerm;59936;51.490;5.436;2023-05-24T08:35:35;63.47;43.36;78.76;;
64642;Laerm;59936;51.490;5.436;2023-05-24T08:38:04;60.90;42.59;76.04;;
64642;Laerm;59936;51.490;5.436;2023-05-24T08:40:32;47.50;41.17;57.81;;
64642;Laerm;59936;51.490;5.436;2023-05-24T08:43:01;49.20;41.57;60.56;;
64642;Laerm;59936;51.490;5.436;2023-05-24T08:45:31;50.78;42.82;61.99;;
64642;Laerm;59936;51.490;5.436;2023-05-24T08:48:08;65.41;43.31;78.79;;
64642;Laerm;59936;51.490;5.436;2023-05-24T08:50:44;56.72;41.34;72.51;;
64642;Laerm;59936;51.490;5.436;2023-05-24T08:53:14;47.07;40.46;60.90;;
64642;Laerm;59936;51.490;5.436;2023-05-24T08:55:44;49.46;41.23;60.79;;
64642;Laerm;59936;51.490;5.436;2023-05-24T08:58:13;48.29;42.79;61.00;;
64642;Laerm;59936;51.490;5.436;2023-05-24T09:00:47;60.03;43.12;75.31;;
64642;Laerm;59936;51.490;5.436;2023-05-24T09:03:16;51.05;41.44;63.01;;
64642;Laerm;59936;51.490;5.436;2023-05-24T09:05:45;45.76;40.80;58.78;;
64642;Laerm;59936;51.490;5.436;2023-05-24T09:08:14;48.19;41.46;60.44;;
64642;Laerm;59936;51.490;5.436;2023-05-24T09:10:44;48.79;41.31;62.37;;
64642;Laerm;59936;51.490;5.436;2023-05-24T09:13:14;49.62;42.32;60.05;;
64642;Laerm;59936;51.490;5.436;2023-05-24T09:15:44;48.75;43.07;58.05;;
64642;Laerm;59936;51.490;5.436;2023-05-24T09:18:12;48.54;42.72;56.66;;
64642;Laerm;59936;51.490;5.436;2023-05-24T09:20:41;46.52;42.51;54.64;;
64642;Laerm;59936;51.490;5.436;2023-05-24T09:23:11;46.10;41.43;54.94;;
64642;Laerm;59936;51.490;5.436;2023-05-24T09:25:43;51.25;43.33;65.86;;
64642;Laerm;59936;51.490;5.436;2023-05-24T09:28:17;50.84;42.66;60.37;;
64642;Laerm;59936;51.490;5.436;2023-05-24T09:31:02;58.75;43.17;78.51;;
64642;Laerm;59936;51.490;5.436;2023-05-24T09:33:32;51.67;42.47;61.96;;
64642;Laerm;59936;51.490;5.436;2023-05-24T09:36:04;51.06;43.29;63.28;;
64642;Laerm;59936;51.490;5.436;2023-05-24T09:38:33;50.25;42.53;63.81;;
64642;Laerm;59936;51.490;5.436;2023-05-24T09:41:07;50.57;43.14;65.47;;
64642;Laerm;59936;51.490;5.436;2023-05-24T09:43:48;60.47;43.04;75.10;;
64642;Laerm;59936;51.490;5.436;2023-05-24T09:46:18;61.25;43.81;75.72;;
64642;Laerm;59936;51.490;5.436;2023-05-24T09:48:58;53.11;44.08;65.25;;
64642;Laerm;59936;51.490;5.436;2023-05-24T09:51:27;51.48;41.55;62.63;;
64642;Laerm;59936;51.490;5.436;2023-05-24T09:54:00;48.96;41.13;58.24;;
64642;Laerm;59936;51.490;5.436;2023-05-24T09:56:32;48.35;42.29;57.63;;
64642;Laerm;59936;51.490;5.436;2023-05-24T09:59:07;49.15;43.54;61.16;;
64642;Laerm;59936;51.490;5.436;2023-05-24T10:01:36;51.09;43.42;60.16;;
64642;Laerm;59936;51.490;5.436;2023-05-24T10:04:05;50.16;44.30;64.44;;
64642;Laerm;59936;51.490;5.436;2023-05-24T10:06:35;50.18;46.53;60.92;;
64642;Laerm;59936;51.490;5.436;2023-05-24T10:09:05;51.08;44.67;58.10;;
64642;Laerm;59936;51.490;5.436;2023-05-24T10:11:35;51.02;45.85;59.57;;
64642;Laerm;59936;51.490;5.436;2023-05-24T10:14:04;51.87;46.26;61.43;;
64642;Laerm;59936;51.490;5.436;2023-05-24T10:16:34;48.94;45.45;59.54;;
64642;Laerm;59936;51.490;5.436;2023-05-24T10:19:03;49.18;43.70;60.37;;
64642;Laerm;59936;51.490;5.436;2023-05-24T10:21:38;54.98;45.62;66.45;;
64642;Laerm;59936;51.490;5.436;2023-05-24T10:24:10;50.69;42.97;63.75;;
64642;Laerm;59936;51.490;5.436;2023-05-24T10:26:40;52.90;46.60;62.85;;
64642;Laerm;59936;51.490;5.436;2023-05-24T10:29:23;51.95;44.77;68.62;;
64642;Laerm;59936;51.490;5.436;2023-05-24T10:31:55;50.95;44.51;61.03;;
64642;Laerm;59936;51.490;5.436;2023-05-24T10:34:24;51.09;45.05;60.37;;
64642;Laerm;59936;51.490;5.436;2023-05-24T10:36:53;52.06;44.01;63.33;;
64642;Laerm;59936;51.490;5.436;2023-05-24T10:39:24;52.12;46.26;66.70;;
64642;Laerm;59936;51.490;5.436;2023-05-24T10:41:55;50.70;46.95;58.83;;
64642;Laerm;59936;51.490;5.436;2023-05-24T10:44:28;53.36;46.72;69.55;;
64642;Laerm;59936;51.490;5.436;2023-05-24T10:47:14;51.05;44.76;64.79;;
64642;Laerm;59936;51.490;5.436;2023-05-24T10:49:55;61.66;44.53;74.28;;
64642;Laerm;59936;51.490;5.436;2023-05-24T10:52:34;50.76;45.00;59.45;;
64642;Laerm;59936;51.490;5.436;2023-05-24T10:55:09;62.88;45.50;78.05;;
64642;Laerm;59936;51.490;5.436;2023-05-24T10:57:41;61.63;46.94;75.07;;
64642;Laerm;59936;51.490;5.436;2023-05-24T11:02:50;52.44;43.95;64.57;;
64642;Laerm;59936;51.490;5.436;2023-05-24T11:05:19;53.19;45.25;65.32;;
64642;Laerm;59936;51.490;5.436;2023-05-24T11:07:49;52.40;45.05;66.38;;
64642;Laerm;59936;51.490;5.436;2023-05-24T11:10:30;48.02;44.21;62.17;;
64642;Laerm;59936;51.490;5.436;2023-05-24T11:13:00;48.91;44.31;58.14;;
64642;Laerm;59936;51.490;5.436;2023-05-24T11:15:29;48.73;43.08;60.75;;
64642;Laerm;59936;51.490;5.436;2023-05-24T11:20:43;58.86;44.93;74.30;;
64642;Laerm;59936;51.490;5.436;2023-05-24T11:23:14;61.02;45.13;75.59;;
64642;Laerm;59936;51.490;5.436;2023-05-24T11:25:46;49.20;44.22;61.51;;
64642;Laerm;59936;51.490;5.436;2023-05-24T11:28:14;51.24;46.86;61.91;;
64642;Laerm;59936;51.490;5.436;2023-05-24T11:30:46;51.22;47.22;59.63;;
64642;Laerm;59936;51.490;5.436;2023-05-24T11:33:23;62.02;47.24;78.80;;
64642;Laerm;59936;51.490;5.436;2023-05-24T11:35:54;58.55;45.53;74.85;;
64642;Laerm;59936;51.490;5.436;2023-05-24T11:38:22;50.63;46.79;60.10;;
64642;Laerm;59936;51.490;5.436;2023-05-24T11:40:51;51.41;46.81;60.96;;
64642;Laerm;59936;51.490;5.436;2023-05-24T11:43:20;51.67;46.40;60.98;;
64642;Laerm;59936;51.490;5.436;2023-05-24T11:45:50;50.76;46.67;60.55;;
64642;Laerm;59936;51.490;5.436;2023-05-24T11:48:19;50.50;46.91;60.06;;
64642;Laerm;59936;51.490;5.436;2023-05-24T11:50:48;61.59;47.15;76.05;;
64642;Laerm;59936;51.490;5.436;2023-05-24T11:53:20;61.12;47.15;76.86;;
64642;Laerm;59936;51.490;5.436;2023-05-24T11:55:48;50.15;46.32;56.00;;
64642;Laerm;59936;51.490;5.436;2023-05-24T11:58:47;48.21;44.53;55.59;;
64642;Laerm;59936;51.490;5.436;2023-05-24T12:01:24;48.46;43.39;64.62;;
64642;Laerm;59936;51.490;5.436;2023-05-24T12:03:53;52.93;44.32;66.19;;
64642;Laerm;59936;51.490;5.436;2023-05-24T12:06:22;51.47;44.61;64.76;;
64642;Laerm;59936;51.490;5.436;2023-05-24T12:08:50;50.67;43.38;65.25;;
64642;Laerm;59936;51.490;5.436;2023-05-24T12:11:20;61.55;47.16;77.03;;
64642;Laerm;59936;51.490;5.436;2023-05-24T12:13:48;50.48;46.71;63.15;;
64642;Laerm;59936;51.490;5.436;2023-05-24T12:16:17;49.84;46.43;59.22;;
64642;Laerm;59936;51.490;5.436;2023-05-24T12:18:54;48.24;44.82;58.44;;
64642;Laerm;59936;51.490;5.436;2023-05-24T12:21:22;50.17;45.97;62.29;;
64642;Laerm;59936;51.490;5.436;2023-05-24T12:23:51;51.75;45.17;66.64;;
64642;Laerm;59936;51.490;5.436;2023-05-24T12:26:20;51.16;45.82;62.81;;
64642;Laerm;59936;51.490;5.436;2023-05-24T12:28:54;60.45;45.64;74.85;;
64642;Laerm;59936;51.490;5.436;2023-05-24T12:31:22;49.06;42.59;61.89;;
64642;Laerm;59936;51.490;5.436;2023-05-24T12:33:51;48.82;43.20;57.42;;
64642;Laerm;59936;51.490;5.436;2023-05-24T12:36:20;50.20;45.50;57.70;;
64642;Laerm;59936;51.490;5.436;2023-05-24T12:38:48;50.03;44.69;59.66;;
64642;Laerm;59936;51.490;5.436;2023-05-24T12:41:17;51.01;45.11;63.05;;
64642;Laerm;59936;51.490;5.436;2023-05-24T12:43:45;59.19;44.29;73.29;;
64642;Laerm;59936;51.490;5.436;2023-05-24T12:46:14;49.52;43.73;58.27;;
64642;Laerm;59936;51.490;5.436;2023-05-24T12:48:43;50.61;46.68;60.12;;
64642;Laerm;59936;51.490;5.436;2023-05-24T12:51:11;48.96;45.92;54.81;;
64642;Laerm;59936;51.490;5.436;2023-05-24T12:53:40;47.58;43.20;62.85;;
64642;Laerm;59936;51.490;5.436;2023-05-24T12:56:08;46.84;43.17;56.78;;
64642;Laerm;59936;51.490;5.436;2023-05-24T12:58:37;49.00;43.07;57.22;;
64642;Laerm;59936;51.490;5.436;2023-05-24T13:01:06;46.74;42.55;57.22;;
64642;Laerm;59936;51.490;5.436;2023-05-24T13:03:34;48.47;43.73;64.69;;
64642;Laerm;59936;51.490;5.436;2023-05-24T13:06:03;48.95;43.70;58.40;;
64642;Laerm;59936;51.490;5.436;2023-05-24T13:08:32;46.29;41.93;55.67;;
64642;Laerm;59936;51.490;5.436;2023-05-24T13:11:00;48.28;44.89;60.20;;
64642;Laerm;59936;51.490;5.436;2023-05-24T13:13:29;50.22;45.56;61.56;;
64642;Laerm;59936;51.490;5.436;2023-05-24T13:15:57;61.02;47.75;76.44;;
64642;Laerm;59936;51.490;5.436;2023-05-24T13:18:26;49.10;44.73;55.05;;
64642;Laerm;59936;51.490;5.436;2023-05-24T13:20:54;53.00;43.96;63.26;;
64642;Laerm;59936;51.490;5.436;2023-05-24T13:23:23;52.12;43.28;70.60;;
64642;Laerm;59936;51.490;5.436;2023-05-24T13:25:57;58.34;45.74;72.49;;
64642;Laerm;59936;51.490;5.436;2023-05-24T13:28:26;62.06;45.59;79.19;;
64642;Laerm;59936;51.490;5.436;2023-05-24T13:30:55;53.96;44.42;74.93;;
64642;Laerm;59936;51.490;5.436;2023-05-24T13:33:24;54.42;43.67;74.25;;
64642;Laerm;59936;51.490;5.436;2023-05-24T13:35:53;53.73;44.37;76.63;;
64642;Laerm;59936;51.490;5.436;2023-05-24T13:38:22;51.57;45.21;64.80;;
64642;Laerm;59936;51.490;5.436;2023-05-24T13:40:51;52.61;46.67;73.41;;
64642;Laerm;59936;51.490;5.436;2023-05-24T13:43:20;53.83;47.02;66.31;;
64642;Laerm;59936;51.490;5.436;2023-05-24T13:45:48;55.57;48.01;72.55;;
64642;Laerm;59936;51.490;5.436;2023-05-24T13:48:17;54.60;46.78;75.23;;
64642;Laerm;59936;51.490;5.436;2023-05-24T13:50:45;50.22;46.13;63.75;;
64642;Laerm;59936;51.490;5.436;2023-05-24T13:53:14;52.43;46.23;67.95;;
64642;Laerm;59936;51.490;5.436;2023-05-24T13:55:43;51.89;46.51;65.00;;
64642;Laerm;59936;51.490;5.436;2023-05-24T13:58:11;50.38;45.94;56.75;;
64642;Laerm;59936;51.490;5.436;2023-05-24T14:00:40;50.89;46.49;64.98;;
64642;Laerm;59936;51.490;5.436;2023-05-24T14:03:08;51.75;46.98;69.32;;
64642;Laerm;59936;51.490;5.436;2023-05-24T14:05:37;60.24;47.42;72.01;;
64642;Laerm;59936;51.490;5.436;2023-05-24T14:08:06;50.04;46.42;56.65;;
64642;Laerm;59936;51.490;5.436;2023-05-24T14:10:35;49.10;45.88;56.97;;
64642;Laerm;59936;51.490;5.436;2023-05-24T14:13:09;61.39;45.41;76.30;;
64642;Laerm;59936;51.490;5.436;2023-05-24T14:15:37;50.12;43.78;61.79;;
64642;Laerm;59936;51.490;5.436;2023-05-24T14:18:06;47.81;42.53;59.19;;